23°C
Woerden, The Nederlands
Taal:  Nederlands
Updated23/05/2018 20:40 
 
Station Historical Data
Daily Summary for February 15, 2018 Units:  Metric    English   Both
Next Day »
Daily Weekly Monthly Yearly Custom
  High: Low: Average:
Temperature: 9.6 °C 0.4 °C 4.3 °C
Dew Point: 7.9 °C -1.5 °C 2.6 °C
Humidity: 96% 69% 89%
Wind Speed: 42.6km/h 3.2km/h 20km/h
Wind Gust: 42.6km/h - -
Wind- - SSW
Pressure: 1016.8 hPa 1005.6 hPa -
Precipitation: 2.8 mm    
Historical Graphs
 
 
Tabular Data for February 15, 2018
Time Temperature Dew Point Pressure Wind Wind Speed Wind Gust Humidity Rainfall Rate (Hourly) solar Conditions
00:04 3.7 °C -1.1 °C 1008.4 hPa SSE 31.5 km/h 31.5 km/h 71% 0.0 mm 0.0 W/m2 CLR
00:09 3.6 °C -1.3 °C 1008.4 hPa ESE 40.2 km/h 40.2 km/h 70% 0.0 mm 0.0 W/m2 CLR
00:14 3.7 °C -1.3 °C 1008.4 hPa SE 32.2 km/h 32.2 km/h 70% 0.0 mm 0.0 W/m2 CLR
00:19 3.6 °C -1.3 °C 1008.4 hPa SE 30.6 km/h 30.6 km/h 70% 0.0 mm 0.0 W/m2 CLR
00:24 3.7 °C -1.3 °C 1008.4 hPa ESE 33.3 km/h 33.3 km/h 70% 0.0 mm 0.0 W/m2 CLR
00:29 3.7 °C -1.3 °C 1008.4 hPa South 33.3 km/h 33.3 km/h 70% 0.0 mm 0.0 W/m2 CLR
00:34 3.7 °C -1.5 °C 1008.4 hPa SE 31.5 km/h 31.5 km/h 69% 0.0 mm 0.0 W/m2 CLR
00:39 3.7 °C -1.5 °C 1008.4 hPa South 37.0 km/h 37.0 km/h 69% 0.0 mm 0.0 W/m2 CLR
00:44 3.7 °C -1.5 °C 1008.0 hPa SE 31.5 km/h 31.5 km/h 69% 0.0 mm 0.0 W/m2 CLR
00:49 3.6 °C -1.2 °C 1008.0 hPa SE 25.9 km/h 25.9 km/h 71% 0.0 mm 0.0 W/m2 CLR
00:54 3.4 °C -1.1 °C 1008.0 hPa SE 29.0 km/h 29.0 km/h 72% 0.0 mm 0.0 W/m2 CLR
00:59 3.2 °C -0.9 °C 1008.0 hPa SSE 35.2 km/h 35.2 km/h 74% 0.0 mm 0.0 W/m2 CLR
01:04 3.0 °C -0.7 °C 1008.0 hPa SE 31.5 km/h 31.5 km/h 77% 0.0 mm 0.0 W/m2 CLR
01:09 2.8 °C -0.7 °C 1008.0 hPa SSE 37.0 km/h 37.0 km/h 78% 0.0 mm 0.0 W/m2 CLR
01:14 2.5 °C -0.4 °C 1007.7 hPa SE 42.6 km/h 42.6 km/h 81% 0.0 mm 0.0 W/m2 CLR
01:19 2.3 °C -0.3 °C 1007.7 hPa SE 38.9 km/h 38.9 km/h 83% 0.0 mm 0.0 W/m2 CLR
01:24 2.2 °C -0.1 °C 1007.7 hPa SSE 33.3 km/h 33.3 km/h 85% 0.0 mm 0.0 W/m2 CLR
01:29 2.0 °C -0.1 °C 1008.0 hPa SSE 35.2 km/h 35.2 km/h 86% 0.0 mm 0.0 W/m2 CLR
01:34 1.9 °C -0.1 °C 1008.0 hPa SE 33.3 km/h 33.3 km/h 87% 0.0 mm 0.0 W/m2 CLR
01:39 1.8 °C 0.0 °C 1008.0 hPa SE 29.6 km/h 29.6 km/h 88% 0.0 mm 0.0 W/m2 CLR
01:44 1.6 °C -0.2 °C 1007.7 hPa SE 31.5 km/h 31.5 km/h 88% 0.3 mm 0.0 W/m2 RA
01:49 1.4 °C -0.2 °C 1007.7 hPa SE 31.5 km/h 31.5 km/h 89% 0.3 mm 0.0 W/m2 RA
01:54 1.3 °C -0.1 °C 1007.7 hPa SSE 33.8 km/h 33.8 km/h 90% 0.3 mm 0.0 W/m2
01:59 1.2 °C -0.2 °C 1007.7 hPa SE 35.4 km/h 35.4 km/h 90% 0.3 mm 0.0 W/m2 CLR
02:04 1.1 °C -0.2 °C 1007.3 hPa SE 31.5 km/h 31.5 km/h 91% 0.3 mm 0.0 W/m2 CLR
02:09 0.9 °C -0.3 °C 1007.7 hPa SE 30.6 km/h 30.6 km/h 91% 0.3 mm 0.0 W/m2 CLR
02:14 0.8 °C -0.3 °C 1007.3 hPa SSE 27.8 km/h 27.8 km/h 92% 0.3 mm 0.0 W/m2 CLR
02:19 0.8 °C -0.4 °C 1007.3 hPa SE 31.5 km/h 31.5 km/h 92% 0.3 mm 0.0 W/m2 CLR
02:24 0.7 °C -0.4 °C 1007.3 hPa SSE 29.6 km/h 29.6 km/h 92% 0.3 mm 0.0 W/m2 CLR
02:29 0.6 °C -0.4 °C 1007.3 hPa SE 27.8 km/h 27.8 km/h 93% 0.3 mm 0.0 W/m2 CLR
02:34 0.6 °C -0.4 °C 1007.3 hPa SSE 25.9 km/h 25.9 km/h 93% 0.3 mm 0.0 W/m2 CLR
02:39 0.5 °C -0.5 °C 1007.3 hPa ESE 24.1 km/h 24.1 km/h 93% 0.3 mm 0.0 W/m2 CLR
02:44 0.5 °C -0.5 °C 1007.3 hPa SE 29.6 km/h 29.6 km/h 93% 0.0 mm 0.0 W/m2 CLR
02:49 0.5 °C -0.5 °C 1007.3 hPa SSE 29.6 km/h 29.6 km/h 93% 0.3 mm 0.0 W/m2 RA
02:54 0.5 °C -0.5 °C 1007.3 hPa SSE 25.9 km/h 25.9 km/h 93% 0.3 mm 0.0 W/m2 RA
02:59 0.5 °C -0.5 °C 1007.0 hPa SSE 32.2 km/h 32.2 km/h 93% 0.3 mm 0.0 W/m2
03:04 0.5 °C -0.3 °C 1007.0 hPa SSE 25.9 km/h 25.9 km/h 94% 0.3 mm 0.0 W/m2 CLR
03:09 0.5 °C -0.3 °C 1007.0 hPa SE 29.6 km/h 29.6 km/h 94% 0.3 mm 0.0 W/m2 CLR
03:14 0.4 °C -0.4 °C 1007.0 hPa SSE 24.1 km/h 24.1 km/h 94% 0.3 mm 0.0 W/m2 CLR
03:19 0.4 °C -0.4 °C 1007.0 hPa SSE 24.1 km/h 24.1 km/h 94% 0.3 mm 0.0 W/m2 CLR
03:24 0.5 °C -0.3 °C 1006.7 hPa SE 27.8 km/h 27.8 km/h 94% 0.5 mm 0.0 W/m2 RA
03:30 0.5 °C -0.3 °C 1006.7 hPa SE 20.9 km/h 20.9 km/h 94% 0.5 mm 0.0 W/m2 RA
03:35 0.6 °C -0.3 °C 1006.7 hPa SSE 27.8 km/h 27.8 km/h 94% 0.5 mm 0.0 W/m2
03:40 0.6 °C -0.3 °C 1006.3 hPa SSE 27.4 km/h 27.4 km/h 94% 0.5 mm 0.0 W/m2 CLR
03:45 0.6 °C -0.2 °C 1006.7 hPa SE 24.1 km/h 24.1 km/h 94% 0.5 mm 0.0 W/m2 CLR
03:50 0.7 °C -0.2 °C 1006.3 hPa SE 27.8 km/h 27.8 km/h 94% 0.5 mm 0.0 W/m2 RA
03:55 0.7 °C -0.2 °C 1006.3 hPa SE 29.6 km/h 29.6 km/h 94% 0.5 mm 0.0 W/m2 RA
04:00 0.7 °C -0.1 °C 1006.3 hPa SE 29.6 km/h 29.6 km/h 94% 0.5 mm 0.0 W/m2 RA
04:05 0.8 °C -0.1 °C 1006.0 hPa SE 31.5 km/h 31.5 km/h 94% 0.5 mm 0.0 W/m2 RA
04:09 0.8 °C -0.1 °C 1006.3 hPa SE 25.9 km/h 25.9 km/h 94% 0.5 mm 0.0 W/m2
04:14 0.9 °C 0.1 °C 1006.0 hPa SE 29.6 km/h 29.6 km/h 94% 0.8 mm 0.0 W/m2 RA
04:19 0.9 °C 0.1 °C 1006.0 hPa SE 33.3 km/h 33.3 km/h 94% 1.0 mm 0.0 W/m2 RA
04:24 1.1 °C 0.2 °C 1005.6 hPa SSE 31.5 km/h 31.5 km/h 94% 0.8 mm 0.0 W/m2 RA
04:29 1.1 °C 0.3 °C 1005.6 hPa SE 35.2 km/h 35.2 km/h 94% 1.0 mm 0.0 W/m2 RA
04:34 1.2 °C 0.4 °C 1005.6 hPa SSE 35.2 km/h 35.2 km/h 94% 1.3 mm 0.0 W/m2 RA
04:39 1.3 °C 0.5 °C 1005.6 hPa SE 40.7 km/h 40.7 km/h 94% 1.3 mm 0.0 W/m2 RA
04:44 1.4 °C 0.6 °C 1005.6 hPa SE 37.0 km/h 37.0 km/h 94% 1.3 mm 0.0 W/m2
04:49 1.3 °C 0.5 °C 1006.0 hPa SSE 25.9 km/h 25.9 km/h 94% 1.0 mm 0.0 W/m2
04:54 1.4 °C 0.6 °C 1006.0 hPa SE 31.5 km/h 31.5 km/h 94% 1.0 mm 0.0 W/m2 CLR
04:59 1.5 °C 0.7 °C 1006.0 hPa SE 33.3 km/h 33.3 km/h 94% 1.0 mm 0.0 W/m2 RA
05:05 1.5 °C 0.7 °C 1006.0 hPa SE 27.4 km/h 27.4 km/h 94% 1.0 mm 0.0 W/m2 RA
05:10 1.5 °C 0.7 °C 1006.0 hPa SE 25.9 km/h 25.9 km/h 94% 1.3 mm 0.0 W/m2 RA
05:15 1.6 °C 0.7 °C 1006.0 hPa SE 29.6 km/h 29.6 km/h 94% 1.0 mm 0.0 W/m2 RA
05:20 1.6 °C 0.7 °C 1006.0 hPa SSE 30.6 km/h 30.6 km/h 94% 0.8 mm 0.0 W/m2
05:25 1.6 °C 0.7 °C 1006.0 hPa SE 27.8 km/h 27.8 km/h 94% 1.0 mm 0.0 W/m2 RA
05:30 1.6 °C 0.7 °C 1006.0 hPa SSE 33.3 km/h 33.3 km/h 94% 1.0 mm 0.0 W/m2 RA
05:35 1.6 °C 0.7 °C 1006.0 hPa SE 30.6 km/h 30.6 km/h 94% 0.8 mm 0.0 W/m2 RA
05:40 1.6 °C 0.7 °C 1006.0 hPa SE 27.8 km/h 27.8 km/h 94% 0.8 mm 0.0 W/m2
05:45 1.7 °C 0.8 °C 1006.0 hPa SE 31.5 km/h 31.5 km/h 94% 0.8 mm 0.0 W/m2 CLR
05:50 1.7 °C 0.8 °C 1006.0 hPa SSE 33.3 km/h 33.3 km/h 94% 0.8 mm 0.0 W/m2 CLR
05:55 1.7 °C 0.8 °C 1006.0 hPa SE 27.8 km/h 27.8 km/h 94% 0.8 mm 0.0 W/m2 CLR
06:00 1.7 °C 0.8 °C 1005.6 hPa SE 31.5 km/h 31.5 km/h 94% 0.5 mm 0.0 W/m2 CLR
06:05 1.7 °C 0.8 °C 1006.0 hPa SSE 29.6 km/h 29.6 km/h 94% 0.5 mm 0.0 W/m2 CLR
06:10 1.7 °C 0.8 °C 1006.0 hPa SE 29.6 km/h 29.6 km/h 94% 0.5 mm 0.0 W/m2 CLR
06:15 1.7 °C 0.8 °C 1006.0 hPa SE 29.6 km/h 29.6 km/h 94% 0.5 mm 0.0 W/m2 CLR
06:20 1.8 °C 0.9 °C 1006.0 hPa SE 29.6 km/h 29.6 km/h 94% 0.5 mm 0.0 W/m2 CLR
06:25 1.8 °C 0.9 °C 1005.6 hPa SE 27.8 km/h 27.8 km/h 94% 0.0 mm 0.0 W/m2 CLR
06:30 1.9 °C 1.0 °C 1006.0 hPa SSE 24.1 km/h 24.1 km/h 94% 0.0 mm 0.0 W/m2 CLR
06:35 1.9 °C 1.0 °C 1006.0 hPa SSE 27.8 km/h 27.8 km/h 94% 0.0 mm 0.0 W/m2 CLR
06:40 1.9 °C 1.0 °C 1006.0 hPa SE 25.9 km/h 25.9 km/h 94% 0.0 mm 0.0 W/m2 CLR
06:45 1.9 °C 1.1 °C 1006.0 hPa SSE 24.1 km/h 24.1 km/h 94% 0.0 mm 0.0 W/m2 CLR
06:50 1.9 °C 1.1 °C 1006.0 hPa SSE 22.2 km/h 22.2 km/h 94% 0.0 mm 0.0 W/m2 CLR
06:55 2.0 °C 1.1 °C 1006.0 hPa SSE 22.2 km/h 22.2 km/h 94% 0.0 mm 0.0 W/m2 CLR
07:00 2.1 °C 1.2 °C 1006.0 hPa SSE 24.1 km/h 24.1 km/h 94% 0.0 mm 0.0 W/m2 CLR
07:05 2.1 °C 1.2 °C 1006.0 hPa SE 22.2 km/h 22.2 km/h 94% 0.0 mm 0.0 W/m2 CLR
07:10 2.2 °C 1.3 °C 1006.0 hPa SE 27.8 km/h 27.8 km/h 94% 0.0 mm 0.0 W/m2 CLR
07:15 2.2 °C 1.3 °C 1006.0 hPa SE 22.5 km/h 22.5 km/h 94% 0.0 mm 0.0 W/m2 CLR
07:20 2.2 °C 1.3 °C 1006.0 hPa SE 25.9 km/h 25.9 km/h 94% 0.0 mm 0.0 W/m2 CLR
07:25 2.3 °C 1.4 °C 1006.0 hPa South 25.9 km/h 25.9 km/h 94% 0.0 mm 0.0 W/m2 CLR
07:30 2.3 °C 1.4 °C 1006.0 hPa SSE 27.8 km/h 27.8 km/h 94% 0.0 mm 0.0 W/m2 CLR
07:35 2.3 °C 1.6 °C 1005.6 hPa SE 29.6 km/h 29.6 km/h 95% 0.0 mm 0.0 W/m2 CLR
07:40 2.3 °C 1.6 °C 1006.0 hPa SE 31.5 km/h 31.5 km/h 95% 0.0 mm 0.0 W/m2 CLR
07:45 2.3 °C 1.6 °C 1006.0 hPa SE 20.4 km/h 20.4 km/h 95% 0.0 mm 0.0 W/m2 CLR
07:50 2.3 °C 1.6 °C 1006.0 hPa SE 27.8 km/h 27.8 km/h 95% 0.0 mm 0.0 W/m2 CLR
07:55 2.3 °C 1.6 °C 1006.0 hPa SSE 24.1 km/h 24.1 km/h 95% 0.0 mm 0.0 W/m2 CLR
08:00 2.3 °C 1.6 °C 1006.0 hPa SE 25.9 km/h 25.9 km/h 95% 0.0 mm 0.0 W/m2 OVC
08:05 2.3 °C 1.6 °C 1006.0 hPa SSE 25.7 km/h 25.7 km/h 95% 0.0 mm 0.0 W/m2 OVC
08:10 2.4 °C 1.7 °C 1006.0 hPa SSE 22.2 km/h 22.2 km/h 95% 0.0 mm 0.0 W/m2 OVC
08:15 2.4 °C 1.7 °C 1006.0 hPa SSE 17.7 km/h 17.7 km/h 95% 0.0 mm 0.0 W/m2 OVC
08:20 2.4 °C 1.7 °C 1006.0 hPa SSE 18.5 km/h 18.5 km/h 95% 0.0 mm 0.0 W/m2 OVC
08:25 2.4 °C 1.7 °C 1006.0 hPa SSE 18.5 km/h 18.5 km/h 95% 0.0 mm 0.0 W/m2 OVC
08:30 2.4 °C 1.7 °C 1006.0 hPa SE 18.5 km/h 18.5 km/h 95% 0.0 mm 0.0 W/m2 OVC
08:35 2.5 °C 1.8 °C 1006.0 hPa SSE 22.2 km/h 22.2 km/h 95% 0.0 mm 7.0 W/m2 OVC
08:40 2.5 °C 1.8 °C 1006.0 hPa SSE 25.9 km/h 25.9 km/h 95% 0.0 mm 7.0 W/m2 OVC
08:45 2.6 °C 1.8 °C 1006.0 hPa SSE 24.1 km/h 24.1 km/h 95% 0.0 mm 11.0 W/m2 OVC
08:50 2.6 °C 1.8 °C 1006.0 hPa SSE 19.3 km/h 19.3 km/h 95% 0.0 mm 11.0 W/m2 OVC
08:55 2.6 °C 1.9 °C 1006.0 hPa SSE 20.4 km/h 20.4 km/h 95% 0.0 mm 11.0 W/m2 OVC
09:00 2.7 °C 1.9 °C 1006.0 hPa SSE 17.7 km/h 17.7 km/h 95% 0.0 mm 9.0 W/m2 OVC
09:05 2.7 °C 1.9 °C 1006.3 hPa SE 24.1 km/h 24.1 km/h 95% 0.0 mm 12.0 W/m2 OVC
09:10 2.7 °C 2.0 °C 1006.3 hPa SSE 24.1 km/h 24.1 km/h 95% 0.0 mm 12.0 W/m2 SCT
09:15 2.8 °C 2.1 °C 1006.3 hPa SSE 22.2 km/h 22.2 km/h 95% 0.0 mm 12.0 W/m2 CLR
09:20 2.8 °C 2.1 °C 1006.3 hPa SSE 18.5 km/h 18.5 km/h 95% 0.0 mm 14.0 W/m2 CLR
09:25 2.9 °C 2.2 °C 1006.3 hPa SSE 24.1 km/h 24.1 km/h 95% 0.0 mm 16.0 W/m2 SCT
09:30 2.9 °C 2.2 °C 1006.3 hPa SSE 18.5 km/h 18.5 km/h 95% 0.0 mm 18.0 W/m2 SCT
09:35 2.9 °C 2.2 °C 1006.3 hPa SSE 18.5 km/h 18.5 km/h 95% 0.0 mm 23.0 W/m2 SCT
09:40 3.1 °C 2.3 °C 1006.7 hPa SSE 17.7 km/h 17.7 km/h 95% 0.0 mm 14.0 W/m2 BKN
09:45 3.1 °C 2.4 °C 1006.7 hPa SSE 18.5 km/h 18.5 km/h 95% 0.0 mm 21.0 W/m2 BKN
09:50 3.2 °C 2.4 °C 1006.7 hPa SSE 20.4 km/h 20.4 km/h 95% 0.0 mm 18.0 W/m2 BKN
09:55 3.2 °C 2.5 °C 1006.7 hPa SSE 20.4 km/h 20.4 km/h 95% 0.0 mm 18.0 W/m2 BKN
10:00 3.3 °C 2.6 °C 1007.0 hPa SSE 20.4 km/h 20.4 km/h 95% 0.0 mm 21.0 W/m2 BKN
10:05 3.3 °C 2.6 °C 1007.0 hPa South 16.7 km/h 16.7 km/h 95% 0.0 mm 16.0 W/m2 BKN
10:10 3.4 °C 2.7 °C 1007.0 hPa SSE 22.2 km/h 22.2 km/h 95% 0.0 mm 19.0 W/m2 BKN
10:15 3.5 °C 2.8 °C 1007.0 hPa SSE 18.5 km/h 18.5 km/h 95% 0.0 mm 12.0 W/m2 BKN
10:20 3.6 °C 2.8 °C 1007.0 hPa South 16.7 km/h 16.7 km/h 95% 0.0 mm 12.0 W/m2 BKN
10:25 3.6 °C 2.9 °C 1007.0 hPa South 14.8 km/h 14.8 km/h 95% 0.0 mm 25.0 W/m2 BKN
10:30 3.7 °C 2.9 °C 1007.0 hPa South 18.5 km/h 18.5 km/h 95% 0.0 mm 30.0 W/m2 BKN
10:35 3.7 °C 3.0 °C 1006.7 hPa SSE 18.5 km/h 18.5 km/h 95% 0.0 mm 39.0 W/m2 BKN
10:40 3.8 °C 3.1 °C 1006.7 hPa South 18.5 km/h 18.5 km/h 95% 0.0 mm 42.0 W/m2 BKN
10:45 3.9 °C 3.2 °C 1007.0 hPa SSE 18.5 km/h 18.5 km/h 95% 0.0 mm 60.0 W/m2 BKN
10:50 4.0 °C 3.3 °C 1007.0 hPa SSW 18.5 km/h 18.5 km/h 95% 0.0 mm 44.0 W/m2 BKN
10:55 4.1 °C 3.4 °C 1007.0 hPa SE 16.7 km/h 16.7 km/h 95% 0.0 mm 53.0 W/m2 BKN
11:00 4.2 °C 3.6 °C 1007.0 hPa South 18.5 km/h 18.5 km/h 96% 0.0 mm 46.0 W/m2 BKN
11:05 4.2 °C 3.5 °C 1007.3 hPa SSW 18.5 km/h 18.5 km/h 95% 0.0 mm 42.0 W/m2 BKN
11:10 4.3 °C 3.6 °C 1007.3 hPa South 18.5 km/h 18.5 km/h 95% 0.0 mm 40.0 W/m2 BKN
11:15 4.3 °C 3.6 °C 1007.3 hPa SSE 16.7 km/h 16.7 km/h 95% 0.0 mm 44.0 W/m2 BKN
11:20 4.4 °C 3.9 °C 1007.3 hPa SSE 14.8 km/h 14.8 km/h 96% 0.0 mm 37.0 W/m2 BKN
11:25 4.5 °C 3.9 °C 1007.3 hPa SW 16.7 km/h 16.7 km/h 96% 0.0 mm 42.0 W/m2 BKN
11:30 4.7 °C 3.9 °C 1007.3 hPa SSE 13.0 km/h 13.0 km/h 95% 0.0 mm 40.0 W/m2 BKN
11:35 4.7 °C 4.0 °C 1007.3 hPa South 14.8 km/h 14.8 km/h 95% 0.0 mm 47.0 W/m2 BKN
11:40 4.8 °C 4.2 °C 1007.3 hPa South 16.7 km/h 16.7 km/h 96% 0.0 mm 58.0 W/m2 BKN
11:45 4.9 °C 4.3 °C 1007.3 hPa South 14.8 km/h 14.8 km/h 96% 0.0 mm 39.0 W/m2 BKN
11:50 5.0 °C 4.4 °C 1007.3 hPa SSE 16.7 km/h 16.7 km/h 96% 0.0 mm 32.0 W/m2 BKN
11:55 5.1 °C 4.5 °C 1007.7 hPa SSE 14.8 km/h 14.8 km/h 96% 0.0 mm 42.0 W/m2 BKN
12:00 5.2 °C 4.6 °C 1007.7 hPa South 14.5 km/h 14.5 km/h 96% 0.0 mm 53.0 W/m2 BKN
12:05 5.4 °C 4.8 °C 1007.7 hPa SW 18.5 km/h 18.5 km/h 96% 0.0 mm 77.0 W/m2 BKN
12:10 5.4 °C 4.8 °C 1007.7 hPa SSW 18.5 km/h 18.5 km/h 96% 0.0 mm 60.0 W/m2 BKN
12:15 5.5 °C 4.9 °C 1007.7 hPa South 18.5 km/h 18.5 km/h 96% 0.0 mm 70.0 W/m2 BKN
12:20 5.6 °C 5.0 °C 1007.7 hPa SSW 13.0 km/h 13.0 km/h 96% 0.0 mm 120.0 W/m2 BKN
12:25 5.8 °C 5.2 °C 1008.0 hPa SW 13.0 km/h 13.0 km/h 96% 0.0 mm 102.0 W/m2 BKN
12:30 5.9 °C 5.3 °C 1007.7 hPa SSW 18.5 km/h 18.5 km/h 96% 0.0 mm 118.0 W/m2 BKN
12:35 6.0 °C 5.4 °C 1008.0 hPa SW 20.9 km/h 20.9 km/h 96% 0.0 mm 84.0 W/m2 BKN
12:40 6.1 °C 5.5 °C 1007.7 hPa SW 16.7 km/h 16.7 km/h 96% 0.0 mm 160.0 W/m2 BKN
12:45 6.2 °C 5.6 °C 1008.0 hPa SSW 16.7 km/h 16.7 km/h 96% 0.0 mm 105.0 W/m2 BKN
12:50 6.3 °C 5.7 °C 1008.0 hPa SW 16.7 km/h 16.7 km/h 96% 0.0 mm 120.0 W/m2 BKN
12:55 6.4 °C 5.8 °C 1008.0 hPa SW 24.1 km/h 24.1 km/h 96% 0.0 mm 128.0 W/m2 BKN
13:00 6.6 °C 5.9 °C 1008.0 hPa SSW 18.5 km/h 18.5 km/h 96% 0.0 mm 151.0 W/m2 BKN
13:05 6.7 °C 6.1 °C 1008.0 hPa SSW 22.2 km/h 22.2 km/h 96% 0.0 mm 151.0 W/m2 BKN
13:10 6.9 °C 6.3 °C 1008.0 hPa SW 18.5 km/h 18.5 km/h 96% 0.0 mm 230.0 W/m2 BKN
13:15 7.2 °C 6.6 °C 1008.0 hPa South 16.7 km/h 16.7 km/h 96% 0.0 mm 229.0 W/m2 SCT
13:20 7.4 °C 6.8 °C 1008.0 hPa SW 20.4 km/h 20.4 km/h 96% 0.0 mm 230.0 W/m2 SCT
13:25 7.4 °C 6.8 °C 1008.0 hPa SSW 20.4 km/h 20.4 km/h 96% 0.0 mm 204.0 W/m2 SCT
13:30 7.6 °C 6.9 °C 1008.0 hPa SSW 22.2 km/h 22.2 km/h 96% 0.0 mm 243.0 W/m2 SCT
13:35 7.6 °C 7.0 °C 1008.4 hPa SW 24.1 km/h 24.1 km/h 96% 0.0 mm 190.0 W/m2 SCT
13:40 7.8 °C 7.2 °C 1008.4 hPa SW 18.5 km/h 18.5 km/h 96% 0.0 mm 318.0 W/m2 SCT
13:45 7.9 °C 7.3 °C 1008.4 hPa SSW 19.3 km/h 19.3 km/h 96% 0.0 mm 155.0 W/m2 SCT
13:50 7.9 °C 7.2 °C 1008.4 hPa SW 18.5 km/h 18.5 km/h 95% 0.0 mm 174.0 W/m2 SCT
13:55 8.1 °C 7.3 °C 1008.4 hPa SW 14.8 km/h 14.8 km/h 95% 0.0 mm 114.0 W/m2 BKN
14:00 8.2 °C 7.4 °C 1008.4 hPa SW 14.8 km/h 14.8 km/h 95% 0.0 mm 127.0 W/m2 BKN
14:05 8.4 °C 7.6 °C 1008.7 hPa WSW 17.7 km/h 17.7 km/h 95% 0.0 mm 186.0 W/m2 BKN
14:10 8.7 °C 7.9 °C 1008.4 hPa SW 20.4 km/h 20.4 km/h 95% 0.0 mm 258.0 W/m2 BKN
14:15 8.8 °C 7.8 °C 1008.7 hPa WSW 22.5 km/h 22.5 km/h 93% 0.0 mm 199.0 W/m2 SCT
14:20 8.9 °C 7.6 °C 1008.7 hPa WSW 19.3 km/h 19.3 km/h 91% 0.0 mm 195.0 W/m2 SCT
14:25 9.2 °C 7.4 °C 1008.7 hPa West 20.4 km/h 20.4 km/h 89% 0.0 mm 388.0 W/m2 SCT
14:30 9.4 °C 7.4 °C 1008.7 hPa WSW 31.5 km/h 31.5 km/h 87% 0.0 mm 225.0 W/m2 FEW
14:35 9.4 °C 7.1 °C 1008.7 hPa WSW 33.3 km/h 33.3 km/h 85% 0.0 mm 95.0 W/m2 SCT
14:40 9.3 °C 6.6 °C 1009.0 hPa WSW 29.6 km/h 29.6 km/h 83% 0.0 mm 102.0 W/m2 BKN
14:45 9.4 °C 6.7 °C 1009.0 hPa WSW 27.8 km/h 27.8 km/h 83% 0.0 mm 111.0 W/m2 BKN
14:50 9.3 °C 6.8 °C 1009.0 hPa WSW 24.1 km/h 24.1 km/h 84% 0.0 mm 188.0 W/m2 BKN
14:55 9.5 °C 6.9 °C 1009.0 hPa West 27.8 km/h 27.8 km/h 84% 0.0 mm 397.0 W/m2 SCT
15:00 9.6 °C 6.8 °C 1009.4 hPa WSW 22.5 km/h 22.5 km/h 83% 0.0 mm 118.0 W/m2 FEW
15:05 9.4 °C 6.7 °C 1009.4 hPa West 33.3 km/h 33.3 km/h 83% 0.3 mm 383.0 W/m2 RA
15:10 9.5 °C 6.8 °C 1009.4 hPa West 32.2 km/h 32.2 km/h 83% 0.3 mm 369.0 W/m2 RA
15:15 9.5 °C 6.6 °C 1009.4 hPa West 35.2 km/h 35.2 km/h 82% 0.3 mm 369.0 W/m2 CLR
15:20 9.5 °C 6.6 °C 1009.7 hPa WSW 29.6 km/h 29.6 km/h 82% 0.3 mm 276.0 W/m2 CLR
15:25 9.4 °C 6.3 °C 1009.7 hPa WNW 20.4 km/h 20.4 km/h 81% 0.3 mm 105.0 W/m2 SCT
15:30 9.3 °C 6.2 °C 1009.7 hPa West 29.6 km/h 29.6 km/h 81% 0.3 mm 165.0 W/m2 BKN
15:35 9.3 °C 6.1 °C 1009.7 hPa West 31.5 km/h 31.5 km/h 80% 0.3 mm 160.0 W/m2 BKN
15:40 9.3 °C 5.8 °C 1010.0 hPa West 30.6 km/h 30.6 km/h 79% 0.3 mm 156.0 W/m2 SCT
15:45 9.2 °C 5.9 °C 1010.0 hPa WSW 25.9 km/h 25.9 km/h 80% 0.3 mm 146.0 W/m2 SCT
15:50 9.2 °C 5.9 °C 1010.0 hPa West 24.1 km/h 24.1 km/h 80% 0.3 mm 127.0 W/m2 SCT
15:55 9.2 °C 5.9 °C 1010.0 hPa WNW 33.3 km/h 33.3 km/h 80% 0.3 mm 267.0 W/m2 SCT
16:00 9.1 °C 5.6 °C 1010.4 hPa West 27.8 km/h 27.8 km/h 79% 0.3 mm 102.0 W/m2 SCT
16:05 8.9 °C 5.7 °C 1010.4 hPa West 27.8 km/h 27.8 km/h 80% 0.0 mm 123.0 W/m2 SCT
16:10 8.9 °C 5.7 °C 1010.4 hPa West 24.1 km/h 24.1 km/h 80% 0.0 mm 144.0 W/m2 BKN
16:15 9.1 °C 6.0 °C 1010.4 hPa West 25.7 km/h 25.7 km/h 81% 0.0 mm 225.0 W/m2 SCT
16:16 9.1 °C 5.8 °C 1010.4 hPa WSW 25.9 km/h 25.9 km/h 80% 0.0 mm 209.0 W/m2 FEW
16:21 9.1 °C 5.8 °C 1010.7 hPa WSW 27.8 km/h 27.8 km/h 80% 0.0 mm 165.0 W/m2 FEW
16:26 9.0 °C 5.7 °C 1010.7 hPa West 24.1 km/h 24.1 km/h 80% 0.0 mm 149.0 W/m2 SCT
16:31 9.0 °C 5.7 °C 1010.7 hPa West 22.2 km/h 22.2 km/h 80% 0.0 mm 134.0 W/m2 SCT
16:36 8.9 °C 5.5 °C 1011.1 hPa WSW 24.1 km/h 24.1 km/h 79% 0.0 mm 120.0 W/m2 SCT
16:41 8.9 °C 5.4 °C 1011.1 hPa West 25.9 km/h 25.9 km/h 79% 0.0 mm 107.0 W/m2 SCT
16:46 8.8 °C 5.6 °C 1011.1 hPa West 18.5 km/h 18.5 km/h 80% 0.0 mm 95.0 W/m2 SCT
16:51 8.8 °C 5.3 °C 1011.1 hPa West 17.7 km/h 17.7 km/h 79% 0.0 mm 84.0 W/m2 SCT
16:56 8.7 °C 5.3 °C 1011.4 hPa WSW 18.5 km/h 18.5 km/h 79% 0.0 mm 74.0 W/m2 BKN
17:01 8.7 °C 5.2 °C 1011.4 hPa West 18.5 km/h 18.5 km/h 79% 0.0 mm 62.0 W/m2 BKN
17:06 8.6 °C 5.1 °C 1011.4 hPa WSW 19.3 km/h 19.3 km/h 79% 0.0 mm 53.0 W/m2 BKN
17:11 8.5 °C 5.1 °C 1011.4 hPa West 18.5 km/h 18.5 km/h 79% 0.0 mm 42.0 W/m2 BKN
17:16 8.3 °C 4.9 °C 1011.7 hPa WNW 18.5 km/h 18.5 km/h 79% 0.0 mm 35.0 W/m2 BKN
17:21 8.2 °C 4.8 °C 1011.7 hPa SW 20.4 km/h 20.4 km/h 79% 0.0 mm 28.0 W/m2 BKN
17:26 8.1 °C 4.7 °C 1011.7 hPa West 18.5 km/h 18.5 km/h 79% 0.0 mm 21.0 W/m2 BKN
17:32 8.0 °C 4.4 °C 1011.7 hPa West 14.8 km/h 14.8 km/h 78% 0.0 mm 18.0 W/m2 BKN
17:37 7.8 °C 4.2 °C 1011.7 hPa West 18.5 km/h 18.5 km/h 78% 0.0 mm 14.0 W/m2 BKN
17:42 7.7 °C 4.1 °C 1011.7 hPa WSW 11.1 km/h 11.1 km/h 78% 0.0 mm 11.0 W/m2 BKN
17:47 7.4 °C 4.0 °C 1012.1 hPa WSW 13.0 km/h 13.0 km/h 79% 0.0 mm 7.0 W/m2 BKN
17:52 7.3 °C 3.9 °C 1012.1 hPa West 14.5 km/h 14.5 km/h 79% 0.0 mm 5.0 W/m2 BKN
17:57 7.2 °C 3.9 °C 1012.4 hPa WSW 14.8 km/h 14.8 km/h 80% 0.0 mm 0.0 W/m2 BKN
18:02 7.0 °C 3.8 °C 1012.4 hPa WSW 11.1 km/h 11.1 km/h 80% 0.0 mm 0.0 W/m2 BKN
18:07 6.8 °C 3.8 °C 1012.4 hPa WSW 8.0 km/h 8.0 km/h 81% 0.0 mm 0.0 W/m2 BKN
18:11 6.6 °C 3.6 °C 1012.4 hPa WSW 5.6 km/h 5.6 km/h 81% 0.0 mm 0.0 W/m2 BKN
18:16 6.4 °C 3.6 °C 1012.4 hPa WSW 7.4 km/h 7.4 km/h 82% 0.0 mm 0.0 W/m2 BKN
18:22 6.2 °C 3.4 °C 1012.4 hPa WSW 5.6 km/h 5.6 km/h 82% 0.0 mm 0.0 W/m2 BKN
18:27 6.0 °C 3.2 °C 1012.8 hPa WSW 5.6 km/h 5.6 km/h 82% 0.0 mm 0.0 W/m2 BKN
18:32 5.8 °C 3.2 °C 1012.8 hPa WSW 5.6 km/h 5.6 km/h 83% 0.0 mm 0.0 W/m2 BKN
18:37 5.8 °C 3.3 °C 1012.8 hPa WSW 5.6 km/h 5.6 km/h 84% 0.0 mm 0.0 W/m2 BKN
18:42 5.7 °C 3.2 °C 1013.1 hPa WSW 5.6 km/h 5.6 km/h 84% 0.0 mm 0.0 W/m2 BKN
18:47 5.6 °C 3.3 °C 1013.1 hPa WSW 5.6 km/h 5.6 km/h 85% 0.0 mm 0.0 W/m2 BKN
18:52 5.6 °C 3.2 °C 1013.1 hPa WSW 5.6 km/h 5.6 km/h 85% 0.0 mm 0.0 W/m2 BKN
18:57 5.6 °C 3.3 °C 1013.1 hPa SW 7.4 km/h 7.4 km/h 85% 0.0 mm 0.0 W/m2 BKN
19:02 5.7 °C 3.6 °C 1013.1 hPa SW 5.6 km/h 5.6 km/h 86% 0.0 mm 0.0 W/m2 BKN
19:07 5.7 °C 3.6 °C 1013.4 hPa SW 4.8 km/h 4.8 km/h 86% 0.0 mm 0.0 W/m2 BKN
19:12 5.6 °C 3.4 °C 1013.4 hPa SW 3.7 km/h 3.7 km/h 86% 0.0 mm 0.0 W/m2 BKN
19:17 5.5 °C 3.3 °C 1013.4 hPa SW 3.7 km/h 3.7 km/h 86% 0.0 mm 0.0 W/m2 BKN
19:22 5.4 °C 3.4 °C 1013.4 hPa SW 5.6 km/h 5.6 km/h 87% 0.0 mm 0.0 W/m2 BKN
19:27 5.3 °C 3.3 °C 1013.8 hPa SW 5.6 km/h 5.6 km/h 87% 0.0 mm 0.0 W/m2 BKN
19:32 5.2 °C 3.2 °C 1013.8 hPa SW 6.4 km/h 6.4 km/h 87% 0.0 mm 0.0 W/m2 BKN
19:37 5.2 °C 3.2 °C 1014.1 hPa SW 7.4 km/h 7.4 km/h 87% 0.0 mm 0.0 W/m2 BKN
19:42 5.1 °C 3.2 °C 1014.1 hPa WSW 7.4 km/h 7.4 km/h 88% 0.0 mm 0.0 W/m2 BKN
19:47 4.9 °C 2.9 °C 1014.1 hPa WSW 5.6 km/h 5.6 km/h 87% 0.0 mm 0.0 W/m2 BKN
19:52 4.8 °C 2.8 °C 1014.1 hPa WSW 7.4 km/h 7.4 km/h 87% 0.0 mm 0.0 W/m2 BKN
19:57 4.7 °C 2.7 °C 1014.1 hPa WSW 11.1 km/h 11.1 km/h 87% 0.0 mm 0.0 W/m2 BKN
20:02 4.4 °C 2.4 °C 1014.4 hPa WSW 5.6 km/h 5.6 km/h 87% 0.0 mm 0.0 W/m2 BKN
20:07 4.4 °C 2.6 °C 1014.4 hPa WSW 5.6 km/h 5.6 km/h 88% 0.0 mm 0.0 W/m2 BKN
20:12 4.4 °C 2.6 °C 1014.4 hPa WSW 5.6 km/h 5.6 km/h 88% 0.0 mm 0.0 W/m2 BKN
20:17 4.3 °C 2.4 °C 1014.4 hPa WSW 5.6 km/h 5.6 km/h 88% 0.0 mm 0.0 W/m2 BKN
20:22 4.3 °C 2.4 °C 1014.4 hPa WSW 5.6 km/h 5.6 km/h 88% 0.0 mm 0.0 W/m2 BKN
20:27 4.2 °C 2.4 °C 1014.4 hPa WSW 3.7 km/h 3.7 km/h 88% 0.0 mm 0.0 W/m2 BKN
20:32 4.2 °C 2.2 °C 1014.4 hPa WSW 3.7 km/h 3.7 km/h 87% 0.0 mm 0.0 W/m2 BKN
20:37 4.2 °C 2.4 °C 1014.8 hPa WSW 5.6 km/h 5.6 km/h 88% 0.0 mm 0.0 W/m2 BKN
20:42 4.2 °C 2.2 °C 1014.8 hPa WSW 5.6 km/h 5.6 km/h 87% 0.0 mm 0.0 W/m2 BKN
20:47 4.1 °C 2.2 °C 1014.8 hPa SW 5.6 km/h 5.6 km/h 87% 0.0 mm 0.0 W/m2 BKN
20:52 4.2 °C 2.3 °C 1014.8 hPa SW 5.6 km/h 5.6 km/h 88% 0.0 mm 0.0 W/m2 BKN
20:57 4.2 °C 2.2 °C 1014.8 hPa SW 5.6 km/h 5.6 km/h 87% 0.0 mm 0.0 W/m2 BKN
21:02 4.3 °C 2.3 °C 1014.8 hPa SSW 7.4 km/h 7.4 km/h 87% 0.0 mm 0.0 W/m2 BKN
21:07 4.3 °C 2.3 °C 1014.8 hPa SSW 5.6 km/h 5.6 km/h 87% 0.0 mm 0.0 W/m2 BKN
21:12 4.2 °C 3.1 °C 1014.8 hPa SSW 5.6 km/h 5.6 km/h 92% 0.0 mm 0.0 W/m2 BKN
21:17 4.1 °C 2.1 °C 1014.8 hPa SW 3.7 km/h 3.7 km/h 87% 0.0 mm 0.0 W/m2 BKN
21:22 3.9 °C 2.0 °C 1015.1 hPa SW 5.6 km/h 5.6 km/h 87% 0.0 mm 0.0 W/m2 BKN
21:27 3.8 °C 1.8 °C 1015.1 hPa SW 5.6 km/h 5.6 km/h 87% 0.0 mm 0.0 W/m2 BKN
21:32 3.6 °C 1.7 °C 1015.1 hPa SW 7.4 km/h 7.4 km/h 87% 0.0 mm 0.0 W/m2 BKN
21:37 3.5 °C 1.7 °C 1015.1 hPa WSW 5.6 km/h 5.6 km/h 88% 0.0 mm 0.0 W/m2 BKN
21:42 3.4 °C 1.7 °C 1015.1 hPa SW 5.6 km/h 5.6 km/h 88% 0.0 mm 0.0 W/m2 BKN
21:47 3.4 °C 1.7 °C 1015.1 hPa SW 6.4 km/h 6.4 km/h 88% 0.0 mm 0.0 W/m2 BKN
21:52 3.4 °C 1.7 °C 1015.1 hPa SW 3.7 km/h 3.7 km/h 88% 0.0 mm 0.0 W/m2 BKN
21:57 3.3 °C 1.6 °C 1015.1 hPa SW 5.6 km/h 5.6 km/h 88% 0.0 mm 0.0 W/m2 BKN
22:02 3.3 °C 1.6 °C 1015.5 hPa SW 3.2 km/h 3.2 km/h 88% 0.0 mm 0.0 W/m2 BKN
22:07 3.4 °C 1.7 °C 1015.5 hPa SW 3.7 km/h 3.7 km/h 89% 0.0 mm 0.0 W/m2 BKN
22:12 3.5 °C 1.8 °C 1015.5 hPa SW 6.4 km/h 6.4 km/h 89% 0.0 mm 0.0 W/m2 BKN
22:17 3.7 °C 2.0 °C 1015.5 hPa SW 5.6 km/h 5.6 km/h 89% 0.0 mm 0.0 W/m2 BKN
22:22 3.8 °C 2.0 °C 1015.5 hPa SW 7.4 km/h 7.4 km/h 88% 0.0 mm 0.0 W/m2 BKN
22:27 3.8 °C 2.0 °C 1015.5 hPa SW 5.6 km/h 5.6 km/h 88% 0.0 mm 0.0 W/m2 BKN
22:32 3.9 °C 2.1 °C 1015.5 hPa SW 7.4 km/h 7.4 km/h 88% 0.0 mm 0.0 W/m2 BKN
22:37 3.8 °C 1.9 °C 1015.8 hPa SW 5.6 km/h 5.6 km/h 87% 0.0 mm 0.0 W/m2 BKN
22:42 3.8 °C 1.9 °C 1015.8 hPa SW 6.4 km/h 6.4 km/h 87% 0.0 mm 0.0 W/m2 BKN
22:47 3.9 °C 2.0 °C 1015.8 hPa SW 7.4 km/h 7.4 km/h 87% 0.0 mm 0.0 W/m2 BKN
22:52 3.9 °C 1.8 °C 1015.8 hPa SW 3.7 km/h 3.7 km/h 86% 0.0 mm 0.0 W/m2 BKN
23:02 3.8 °C 1.8 °C 1015.8 hPa SW 4.8 km/h 4.8 km/h 87% 0.0 mm 0.0 W/m2 BKN
23:07 3.7 °C 1.7 °C 1016.1 hPa SW 3.7 km/h 3.7 km/h 87% 0.0 mm 0.0 W/m2 BKN
23:12 3.6 °C 1.6 °C 1016.1 hPa SW 3.7 km/h 3.7 km/h 87% 0.0 mm 0.0 W/m2 BKN
23:17 3.4 °C 1.4 °C 1016.1 hPa SW 3.7 km/h 3.7 km/h 87% 0.0 mm 0.0 W/m2 BKN
23:22 3.3 °C 1.5 °C 1016.1 hPa SW 3.7 km/h 3.7 km/h 88% 0.0 mm 0.0 W/m2 BKN
23:27 3.3 °C 1.5 °C 1016.5 hPa SW 5.6 km/h 5.6 km/h 88% 0.0 mm 0.0 W/m2 BKN
23:32 3.3 °C 1.5 °C 1016.5 hPa SW 3.7 km/h 3.7 km/h 88% 0.0 mm 0.0 W/m2 BKN
23:37 3.2 °C 1.4 °C 1016.5 hPa SW 3.7 km/h 3.7 km/h 88% 0.0 mm 0.0 W/m2 BKN
23:42 3.2 °C 1.4 °C 1016.5 hPa SW 5.6 km/h 5.6 km/h 88% 0.0 mm 0.0 W/m2 BKN
23:47 3.1 °C 1.3 °C 1016.5 hPa SW 3.7 km/h 3.7 km/h 88% 0.0 mm 0.0 W/m2 BKN
23:52 2.9 °C 1.2 °C 1016.8 hPa SW 5.6 km/h 5.6 km/h 88% 0.0 mm 0.0 W/m2 BKN
23:57 2.8 °C 0.9 °C 1016.8 hPa SW 5.6 km/h 5.6 km/h 87% 0.0 mm 0.0 W/m2 BKN
Juneau County Weather